Time,TemperatureF,DewpointF,PressureIn,WindDirection,WindDirectionDegrees,WindSpeedMPH,WindSpeedGustMPH,Humidity,HourlyPrecipIn,Conditions,Clouds,dailyrainin,SoftwareType,DateUTC
2013-07-20 00:03:00,79.3,72.2,29.69,West,270,0.0,-999.0,79,-99.99,,,0.00,Acu-Link.com,2013-07-20 04:03:00,
2013-07-20 00:18:00,78.3,71.2,29.70,West,270,0.0,-999.0,79,-99.99,,,0.00,Acu-Link.com,2013-07-20 04:18:00,
2013-07-20 00:33:00,77.9,70.8,29.70,West,270,2.7,-999.0,79,-99.99,,,0.00,Acu-Link.com,2013-07-20 04:33:00,
2013-07-20 00:48:00,78.3,71.2,29.70,WNW,292,3.2,-999.0,79,-99.99,,,0.00,Acu-Link.com,2013-07-20 04:48:00,
2013-07-20 01:04:00,77.7,70.7,29.71,West,270,3.2,-999.0,79,-99.99,,,0.00,Acu-Link.com,2013-07-20 05:04:00,
2013-07-20 01:19:00,77.9,70.5,29.71,WNW,292,4.2,-999.0,78,-99.99,,,0.00,Acu-Link.com,2013-07-20 05:19:00,
2013-07-20 01:34:00,77.4,70.0,29.69,WNW,292,3.7,-999.0,78,-99.99,,,0.00,Acu-Link.com,2013-07-20 05:34:00,
2013-07-20 01:49:00,77.2,70.2,29.68,West,270,2.2,-999.0,79,-99.99,,,0.00,Acu-Link.com,2013-07-20 05:49:00,
2013-07-20 02:04:00,76.6,69.6,29.67,West,270,1.7,-999.0,79,-99.99,,,0.00,Acu-Link.com,2013-07-20 06:04:00,
2013-07-20 02:19:00,76.6,69.6,29.66,West,270,3.2,-999.0,79,-99.99,,,0.00,Acu-Link.com,2013-07-20 06:19:00,
2013-07-20 02:34:00,76.1,69.1,29.65,West,270,2.2,-999.0,79,-99.99,,,0.00,Acu-Link.com,2013-07-20 06:34:00,
2013-07-20 02:50:00,75.6,68.6,29.65,West,270,2.7,-999.0,79,-99.99,,,0.00,Acu-Link.com,2013-07-20 06:50:00,
2013-07-20 03:05:00,75.6,68.6,29.63,West,270,2.7,-999.0,79,-99.99,,,0.00,Acu-Link.com,2013-07-20 07:05:00,
2013-07-20 03:20:00,75.4,68.0,29.63,WSW,247,1.1,-999.0,78,-99.99,,,0.00,Acu-Link.com,2013-07-20 07:20:00,
2013-07-20 03:35:00,75.7,68.3,29.63,West,270,2.7,-999.0,78,-99.99,,,0.00,Acu-Link.com,2013-07-20 07:35:00,
2013-07-20 03:50:00,75.7,68.3,29.63,WNW,292,3.2,-999.0,78,-99.99,,,0.00,Acu-Link.com,2013-07-20 07:50:00,
2013-07-20 04:06:00,75.9,68.5,29.63,West,270,2.7,-999.0,78,-99.99,,,0.00,Acu-Link.com,2013-07-20 08:06:00,
2013-07-20 04:21:00,75.7,68.3,29.63,West,270,2.2,-999.0,78,-99.99,,,0.00,Acu-Link.com,2013-07-20 08:21:00,
2013-07-20 04:36:00,75.6,68.2,29.63,West,270,2.7,-999.0,78,-99.99,,,0.00,Acu-Link.com,2013-07-20 08:36:00,
2013-07-20 04:51:00,75.9,68.5,29.64,NW,315,3.2,-999.0,78,-99.99,,,0.00,Acu-Link.com,2013-07-20 08:51:00,
2013-07-20 05:06:00,76.1,68.7,29.65,West,270,2.7,-999.0,78,-99.99,,,0.00,Acu-Link.com,2013-07-20 09:06:00,
2013-07-20 05:21:00,76.6,69.2,29.65,West,270,2.7,-999.0,78,-99.99,,,0.00,Acu-Link.com,2013-07-20 09:21:00,
2013-07-20 05:36:00,76.5,69.1,29.65,West,270,2.7,-999.0,78,-99.99,,,0.00,Acu-Link.com,2013-07-20 09:36:00,
2013-07-20 05:51:00,76.5,69.1,29.65,WNW,292,3.2,-999.0,78,-99.99,,,0.00,Acu-Link.com,2013-07-20 09:51:00,
2013-07-20 06:07:00,76.5,69.1,29.66,SW,225,1.7,-999.0,78,-99.99,,,0.00,Acu-Link.com,2013-07-20 10:07:00,
2013-07-20 06:22:00,76.5,69.1,29.65,West,270,2.2,-999.0,78,-99.99,,,0.00,Acu-Link.com,2013-07-20 10:22:00,
2013-07-20 06:37:00,76.5,69.5,29.65,WNW,292,2.7,-999.0,79,-99.99,,,0.00,Acu-Link.com,2013-07-20 10:37:00,
2013-07-20 06:52:00,76.5,69.5,29.65,SW,225,1.7,-999.0,79,-99.99,,,0.00,Acu-Link.com,2013-07-20 10:52:00,
2013-07-20 07:07:00,76.8,69.8,29.66,West,270,3.7,-999.0,79,-99.99,,,0.00,Acu-Link.com,2013-07-20 11:07:00,
2013-07-20 07:22:00,77.0,70.0,29.66,West,270,2.2,-999.0,79,-99.99,,,0.00,Acu-Link.com,2013-07-20 11:22:00,
2013-07-20 07:37:00,77.4,70.0,29.66,WSW,247,1.7,-999.0,78,-99.99,,,0.00,Acu-Link.com,2013-07-20 11:37:00,
2013-07-20 07:52:00,78.1,70.7,29.67,NW,315,4.2,-999.0,78,-99.99,,,0.00,Acu-Link.com,2013-07-20 11:52:00,
2013-07-20 08:08:00,80.4,71.7,29.66,West,270,3.2,-999.0,75,-99.99,,,0.00,Acu-Link.com,2013-07-20 12:08:00,
2013-07-20 08:23:00,78.4,71.0,29.67,NW,315,2.7,-999.0,78,-99.99,,,0.00,Acu-Link.com,2013-07-20 12:23:00,
2013-07-20 08:38:00,78.6,71.1,29.67,West,270,2.7,-999.0,78,-99.99,,,0.00,Acu-Link.com,2013-07-20 12:38:00,
2013-07-20 08:53:00,79.9,72.0,29.66,South,180,4.2,-999.0,77,-99.99,,,0.00,Acu-Link.com,2013-07-20 12:53:00,
2013-07-20 09:08:00,79.9,70.9,29.65,NNE,22,5.8,-999.0,74,-99.99,,,0.00,Acu-Link.com,2013-07-20 13:08:00,
2013-07-20 09:23:00,79.9,71.2,29.65,WNW,292,2.7,-999.0,75,-99.99,,,0.00,Acu-Link.com,2013-07-20 13:23:00,
2013-07-20 09:38:00,80.2,71.9,29.64,NW,315,2.2,-999.0,76,-99.99,,,0.00,Acu-Link.com,2013-07-20 13:38:00,
2013-07-20 09:53:00,80.2,71.5,29.61,SSW,202,4.7,-999.0,75,-99.99,,,0.00,Acu-Link.com,2013-07-20 13:53:00,
2013-07-20 10:08:00,81.0,71.5,29.62,WNW,292,7.8,-999.0,73,-99.99,,,0.00,Acu-Link.com,2013-07-20 14:08:00,
2013-07-20 10:24:00,80.2,71.5,29.61,West,270,7.8,-999.0,75,-99.99,,,0.00,Acu-Link.com,2013-07-20 14:24:00,
2013-07-20 10:39:00,81.0,72.3,29.63,WSW,247,7.3,-999.0,75,-99.99,,,0.00,Acu-Link.com,2013-07-20 14:39:00,
2013-07-20 10:54:00,81.3,72.6,29.62,West,270,7.8,-999.0,75,-99.99,,,0.00,Acu-Link.com,2013-07-20 14:54:00,
2013-07-20 11:09:00,81.3,72.6,29.62,SSW,202,2.7,-999.0,75,-99.99,,,0.00,Acu-Link.com,2013-07-20 15:09:00,
2013-07-20 11:24:00,82.4,72.4,29.62,NNW,337,6.3,-999.0,72,-99.99,,,0.00,Acu-Link.com,2013-07-20 15:24:00,
2013-07-20 11:39:00,84.0,72.3,29.62,NE,45,3.2,-999.0,68,-99.99,,,0.00,Acu-Link.com,2013-07-20 15:39:00,
2013-07-20 11:54:00,86.9,71.8,29.61,West,270,2.2,-999.0,61,-99.99,,,0.00,Acu-Link.com,2013-07-20 15:54:00,
2013-07-20 12:09:00,88.3,71.1,29.60,SSW,202,2.7,-999.0,57,-99.99,,,0.00,Acu-Link.com,2013-07-20 16:09:00,
2013-07-20 12:25:00,88.7,70.4,29.58,SSE,157,4.7,-999.0,55,-99.99,,,0.00,Acu-Link.com,2013-07-20 16:25:00,
2013-07-20 12:40:00,86.9,69.3,29.58,West,270,5.8,-999.0,56,-99.99,,,0.00,Acu-Link.com,2013-07-20 16:40:00,
2013-07-20 12:55:00,86.7,69.6,29.59,West,270,6.8,-999.0,57,-99.99,,,0.00,Acu-Link.com,2013-07-20 16:55:00,
2013-07-20 13:10:00,86.0,70.5,29.62,West,270,11.9,-999.0,60,-99.99,,,0.00,Acu-Link.com,2013-07-20 17:10:00,
2013-07-20 13:25:00,88.5,70.8,29.60,North,0,2.7,-999.0,56,-99.99,,,0.00,Acu-Link.com,2013-07-20 17:25:00,
2013-07-20 13:40:00,89.6,69.0,29.61,NW,315,10.4,-999.0,51,-99.99,,,0.00,Acu-Link.com,2013-07-20 17:40:00,
2013-07-20 13:55:00,89.2,68.7,29.60,WNW,292,3.7,-999.0,51,-99.99,,,0.00,Acu-Link.com,2013-07-20 17:55:00,
2013-07-20 14:10:00,90.1,69.5,29.61,WNW,292,5.3,-999.0,51,-99.99,,,0.00,Acu-Link.com,2013-07-20 18:10:00,
2013-07-20 14:26:00,90.9,68.5,29.60,South,180,4.7,-999.0,48,-99.99,,,0.00,Acu-Link.com,2013-07-20 18:26:00,
2013-07-20 14:41:00,89.8,67.5,29.60,North,0,5.8,-999.0,48,-99.99,,,0.00,Acu-Link.com,2013-07-20 18:41:00,
2013-07-20 15:11:00,90.0,70.0,29.60,West,270,2.7,-999.0,52,-99.99,,,0.00,Acu-Link.com,2013-07-20 19:11:00,
2013-07-20 15:26:00,88.0,68.7,29.59,WNW,292,3.2,-999.0,53,-99.99,,,0.00,Acu-Link.com,2013-07-20 19:26:00,
2013-07-20 15:41:00,86.7,68.6,29.58,WNW,292,3.7,-999.0,55,-99.99,,,0.00,Acu-Link.com,2013-07-20 19:41:00,
2013-07-20 15:56:00,85.6,70.6,29.59,WNW,292,3.7,-999.0,61,-99.99,,,0.00,Acu-Link.com,2013-07-20 19:56:00,
2013-07-20 16:11:00,87.3,69.7,29.61,West,270,3.7,-999.0,56,-99.99,,,0.00,Acu-Link.com,2013-07-20 20:11:00,
2013-07-20 17:12:00,87.1,69.5,29.63,SW,225,2.2,-999.0,56,-99.99,,,0.00,Acu-Link.com,2013-07-20 21:12:00,
2013-07-20 17:27:00,86.2,69.1,29.64,WNW,292,2.2,-999.0,57,-99.99,,,0.00,Acu-Link.com,2013-07-20 21:27:00,
2013-07-20 17:42:00,86.5,69.9,29.64,SW,225,1.7,-999.0,58,-99.99,,,0.00,Acu-Link.com,2013-07-20 21:42:00,
2013-07-20 17:57:00,84.4,68.5,29.64,West,270,3.2,-999.0,59,-99.99,,,0.00,Acu-Link.com,2013-07-20 21:57:00,
2013-07-20 18:27:00,84.0,69.1,29.64,West,270,3.7,-999.0,61,-99.99,,,0.00,Acu-Link.com,2013-07-20 22:27:00,
2013-07-20 18:43:00,83.8,69.8,29.65,West,270,2.7,-999.0,63,-99.99,,,0.00,Acu-Link.com,2013-07-20 22:43:00,
2013-07-20 19:01:00,83.1,70.5,29.65,SW,225,2.7,-999.0,66,-99.99,,,0.00,Acu-Link.com,2013-07-20 23:01:00,
2013-07-20 19:19:00,82.6,70.9,29.64,West,270,1.7,-999.0,68,-99.99,,,0.00,Acu-Link.com,2013-07-20 23:19:00,
2013-07-20 20:09:00,80.6,69.0,29.66,West,270,1.7,-999.0,68,-99.99,,,0.00,Acu-Link.com,2013-07-21 00:09:00,
2013-07-20 20:44:00,79.7,68.6,29.67,West,270,4.2,-999.0,69,-99.99,,,0.00,Acu-Link.com,2013-07-21 00:44:00,
2013-07-20 20:59:00,79.5,68.8,29.68,WSW,247,1.7,-999.0,70,-99.99,,,0.00,Acu-Link.com,2013-07-21 00:59:00,
2013-07-20 21:30:00,78.6,69.2,29.69,West,270,2.7,-999.0,73,-99.99,,,0.00,Acu-Link.com,2013-07-21 01:30:00,
2013-07-20 21:45:00,78.4,69.0,29.69,West,270,2.7,-999.0,73,-99.99,,,0.00,Acu-Link.com,2013-07-21 01:45:00,
2013-07-20 22:16:00,76.6,68.8,29.70,NW,315,1.7,-999.0,77,-99.99,,,0.00,Acu-Link.com,2013-07-21 02:16:00,
2013-07-20 22:31:00,75.7,68.3,29.70,NW,315,2.7,-999.0,78,-99.99,,,0.00,Acu-Link.com,2013-07-21 02:31:00,
2013-07-20 22:46:00,75.7,68.3,29.71,WNW,292,3.2,-999.0,78,-99.99,,,0.00,Acu-Link.com,2013-07-21 02:46:00,
2013-07-20 23:01:00,75.6,68.6,29.71,ENE,67,0.0,-999.0,79,-99.99,,,0.00,Acu-Link.com,2013-07-21 03:01:00,
2013-07-20 23:17:00,74.8,67.8,29.71,WNW,292,2.2,-999.0,79,-99.99,,,0.00,Acu-Link.com,2013-07-21 03:17:00,
2013-07-20 23:32:00,74.3,67.4,29.72,West,270,3.2,-999.0,79,-99.99,,,0.00,Acu-Link.com,2013-07-21 03:32:00,
2013-07-20 23:47:00,73.9,67.0,29.71,WNW,292,2.7,-999.0,79,-99.99,,,0.00,Acu-Link.com,2013-07-21 03:47:00,